TimeHAST,TemperatureF,Dew PointF,Humidity,Sea Level PressureIn,VisibilityMPH,Wind Direction,Wind SpeedMPH,Gust SpeedMPH,PrecipitationIn,Events,Conditions,WindDirDegrees,DateUTC
12:16 AM,39.2,37.4,93,29.07,5.0,South,35.7,50.6,N/A,,Overcast,180,2013-02-18 10:16:00
12:36 AM,39.2,37.4,93,29.07,5.0,South,33.4,46.0,N/A,,Overcast,180,2013-02-18 10:36:00
12:56 AM,39.2,35.6,87,29.10,7.0,South,35.7,59.8,N/A,,Overcast,180,2013-02-18 10:56:00
1:16 AM,39.2,35.6,87,29.10,7.0,South,36.8,48.3,N/A,,Overcast,180,2013-02-18 11:16:00
1:36 AM,39.2,35.6,87,29.11,5.0,South,41.4,56.4,N/A,,Overcast,190,2013-02-18 11:36:00
1:56 AM,39.2,35.6,87,29.12,3.0,South,39.1,51.8,N/A,,Overcast,190,2013-02-18 11:56:00
2:16 AM,39.2,35.6,87,29.11,3.0,South,36.8,47.2,N/A,,Overcast,190,2013-02-18 12:16:00
2:36 AM,39.2,35.6,87,29.10,3.0,South,39.1,47.2,N/A,,Overcast,190,2013-02-18 12:36:00
2:56 AM,39.2,35.6,87,29.11,4.0,South,39.1,51.8,N/A,,Overcast,190,2013-02-18 12:56:00
3:16 AM,39.2,35.6,87,29.12,5.0,South,35.7,47.2,N/A,,Overcast,190,2013-02-18 13:16:00
3:36 AM,39.2,35.6,87,29.14,5.0,South,34.5,46.0,N/A,,Overcast,190,2013-02-18 13:36:00
3:56 AM,39.2,35.6,87,29.16,5.0,South,39.1,46.0,N/A,,Overcast,190,2013-02-18 13:56:00
4:16 AM,39.2,35.6,87,29.16,4.0,South,25.3,36.8,N/A,,Overcast,190,2013-02-18 14:16:00
4:36 AM,39.2,35.6,87,29.18,4.0,South,33.4,40.3,N/A,,Overcast,190,2013-02-18 14:36:00
4:56 AM,39.2,35.6,87,29.17,4.0,South,33.4,48.3,N/A,,Overcast,190,2013-02-18 14:56:00
5:16 AM,39.2,35.6,87,29.17,3.0,South,32.2,40.3,N/A,,Overcast,190,2013-02-18 15:16:00
5:36 AM,39.2,35.6,87,29.17,3.0,South,24.2,35.7,N/A,,Overcast,190,2013-02-18 15:36:00
5:56 AM,39.2,35.6,87,29.16,4.0,South,24.2,32.2,N/A,,Overcast,190,2013-02-18 15:56:00
6:16 AM,39.2,35.6,87,29.16,6.0,SSW,26.5,38.0,N/A,,Overcast,200,2013-02-18 16:16:00
6:36 AM,39.2,33.8,81,29.17,5.0,SSW,24.2,40.3,N/A,,Overcast,200,2013-02-18 16:36:00
6:56 AM,37.4,33.8,87,29.18,3.0,SSW,18.4,36.8,N/A,,Overcast,200,2013-02-18 16:56:00
7:16 AM,37.4,33.8,87,29.19,10.0,South,23.0,34.5,N/A,,Overcast,190,2013-02-18 17:16:00
7:36 AM,37.4,32.0,81,29.20,9.0,SSW,26.5,41.4,N/A,,Overcast,200,2013-02-18 17:36:00
7:56 AM,37.4,32.0,81,29.21,9.0,SSW,31.1,42.6,N/A,,Overcast,200,2013-02-18 17:56:00
8:16 AM,37.4,32.0,81,29.22,9.0,SSW,31.1,47.2,N/A,,Overcast,200,2013-02-18 18:16:00
8:36 AM,37.4,30.2,75,29.23,10.0,SSW,31.1,46.0,N/A,,Overcast,200,2013-02-18 18:36:00
8:56 AM,37.4,28.4,70,29.24,10.0,SSW,26.5,47.2,N/A,,Overcast,200,2013-02-18 18:56:00
9:16 AM,37.4,26.6,65,29.26,10.0,SSW,34.5,44.9,N/A,,Mostly Cloudy,210,2013-02-18 19:16:00
9:36 AM,37.4,26.6,65,29.27,10.0,SW,33.4,44.9,N/A,,Overcast,220,2013-02-18 19:36:00
9:56 AM,37.4,26.6,65,29.29,7.0,SW,23.0,34.5,N/A,,Overcast,230,2013-02-18 19:56:00
10:16 AM,37.4,24.8,60,29.30,9.0,SW,20.7,34.5,N/A,,Overcast,230,2013-02-18 20:16:00
10:36 AM,37.4,26.6,65,29.32,8.0,SW,18.4,32.2,N/A,,Overcast,220,2013-02-18 20:36:00
10:56 AM,37.4,26.6,65,29.33,8.0,SSW,24.2,36.8,N/A,,Overcast,210,2013-02-18 20:56:00
11:16 AM,37.4,24.8,60,29.34,9.0,SSW,25.3,34.5,N/A,,Overcast,210,2013-02-18 21:16:00
11:36 AM,39.2,26.6,61,29.34,8.0,SW,18.4,31.1,N/A,,Overcast,220,2013-02-18 21:36:00
11:56 AM,39.2,24.8,56,29.36,10.0,SSW,27.6,32.2,N/A,,Mostly Cloudy,210,2013-02-18 21:56:00
12:16 PM,39.2,24.8,56,29.37,10.0,SSW,16.1,28.8,N/A,,Mostly Cloudy,210,2013-02-18 22:16:00
12:36 PM,39.2,26.6,61,29.38,9.0,SSW,23.0,32.2,N/A,,Overcast,210,2013-02-18 22:36:00
12:56 PM,39.2,26.6,61,29.38,10.0,SSW,23.0,33.4,N/A,,Overcast,210,2013-02-18 22:56:00
1:16 PM,39.2,26.6,61,29.38,10.0,SSW,20.7,28.8,N/A,,Overcast,210,2013-02-18 23:16:00
1:36 PM,39.2,26.6,61,29.38,10.0,SSW,13.8,28.8,N/A,,Mostly Cloudy,200,2013-02-18 23:36:00
1:56 PM,39.2,26.6,61,29.38,10.0,SSW,23.0,29.9,N/A,,Mostly Cloudy,210,2013-02-18 23:56:00
2:16 PM,39.2,28.4,65,29.38,10.0,SSW,17.3,27.6,N/A,,Mostly Cloudy,200,2013-02-19 00:16:00
2:36 PM,39.2,26.6,61,29.37,9.0,SSW,17.3,27.6,N/A,,Overcast,200,2013-02-19 00:36:00
2:56 PM,39.2,26.6,61,29.37,10.0,SSW,16.1,32.2,N/A,,Mostly Cloudy,200,2013-02-19 00:56:00
3:16 PM,37.4,28.4,70,29.37,9.0,South,18.4,28.8,N/A,,Mostly Cloudy,190,2013-02-19 01:16:00
3:36 PM,37.4,28.4,70,29.38,9.0,South,25.3,29.9,N/A,,Overcast,190,2013-02-19 01:36:00
3:56 PM,39.2,28.4,65,29.38,9.0,SW,21.9,31.1,N/A,,Mostly Cloudy,220,2013-02-19 01:56:00
4:16 PM,37.4,26.6,65,29.37,10.0,SW,15.0,24.2,N/A,,Mostly Cloudy,220,2013-02-19 02:16:00
4:36 PM,39.2,28.4,65,29.37,9.0,SW,16.1,21.9,N/A,,Overcast,220,2013-02-19 02:36:00
4:56 PM,37.4,28.4,70,29.37,9.0,SW,19.6,27.6,N/A,,Overcast,220,2013-02-19 02:56:00
5:16 PM,37.4,26.6,65,29.38,10.0,SSW,15.0,-,N/A,,Overcast,210,2013-02-19 03:16:00
5:36 PM,37.4,26.6,65,29.38,10.0,SSW,13.8,25.3,N/A,,Overcast,210,2013-02-19 03:36:00
5:56 PM,37.4,28.4,70,29.38,10.0,South,16.1,19.6,N/A,,Overcast,190,2013-02-19 03:56:00
6:16 PM,37.4,28.4,70,29.38,10.0,South,19.6,26.5,N/A,,Mostly Cloudy,190,2013-02-19 04:16:00
6:36 PM,37.4,28.4,70,29.39,10.0,South,20.7,26.5,N/A,,Scattered Clouds,190,2013-02-19 04:36:00
6:56 PM,37.4,28.4,70,29.38,10.0,SSW,19.6,28.8,N/A,,Scattered Clouds,200,2013-02-19 04:56:00
7:16 PM,37.4,28.4,70,29.39,10.0,SW,16.1,31.1,N/A,,Mostly Cloudy,220,2013-02-19 05:16:00
7:36 PM,35.6,26.6,70,29.39,10.0,SW,12.7,-,N/A,,Partly Cloudy,230,2013-02-19 05:36:00
7:56 PM,35.6,26.6,70,29.39,10.0,SW,13.8,-,N/A,,Partly Cloudy,220,2013-02-19 05:56:00
8:16 PM,35.6,26.6,70,29.39,10.0,WSW,9.2,-,N/A,,Partly Cloudy,240,2013-02-19 06:16:00
8:36 PM,35.6,26.6,70,29.39,10.0,SW,11.5,-,N/A,,Mostly Cloudy,230,2013-02-19 06:36:00
8:56 PM,35.6,26.6,70,29.39,10.0,SW,6.9,-,N/A,,Mostly Cloudy,230,2013-02-19 06:56:00
9:16 PM,35.6,26.6,70,29.39,10.0,SW,10.4,-,N/A,,Mostly Cloudy,220,2013-02-19 07:16:00
9:36 PM,35.6,26.6,70,29.39,10.0,SSW,12.7,-,N/A,,Mostly Cloudy,210,2013-02-19 07:36:00
9:56 PM,35.6,26.6,70,29.39,10.0,SSW,12.7,-,N/A,,Scattered Clouds,210,2013-02-19 07:56:00
10:16 PM,35.6,26.6,70,29.39,10.0,SSW,13.8,-,N/A,,Clear,210,2013-02-19 08:16:00
10:36 PM,35.6,26.6,70,29.40,10.0,SW,11.5,-,N/A,,Partly Cloudy,220,2013-02-19 08:36:00
10:56 PM,35.6,26.6,70,29.40,10.0,SW,8.1,-,N/A,,Mostly Cloudy,230,2013-02-19 08:56:00
11:16 PM,35.6,28.4,75,29.41,9.0,SW,10.4,-,N/A,,Mostly Cloudy,220,2013-02-19 09:16:00
11:36 PM,35.6,26.6,70,29.41,10.0,WSW,11.5,-,N/A,,Partly Cloudy,240,2013-02-19 09:36:00
11:56 PM,35.6,24.8,65,29.41,10.0,WSW,8.1,-,N/A,,Mostly Cloudy,240,2013-02-19 09:56:00